sensor_id;sensor_type;location;lat;lon;timestamp;P1;durP1;ratioP1;P2;durP2;ratioP2
32780;SDS011;19136;47.032;15.502;2022-09-17T00:00:39;7.22;;;4.63;;
32780;SDS011;19136;47.032;15.502;2022-09-17T00:03:05;5.18;;;3.50;;
32780;SDS011;19136;47.032;15.502;2022-09-17T00:05:31;4.63;;;3.60;;
32780;SDS011;19136;47.032;15.502;2022-09-17T00:07:57;6.47;;;3.75;;
32780;SDS011;19136;47.032;15.502;2022-09-17T00:10:23;5.15;;;3.63;;
32780;SDS011;19136;47.032;15.502;2022-09-17T00:12:49;5.43;;;3.17;;
32780;SDS011;19136;47.032;15.502;2022-09-17T00:15:15;5.38;;;3.88;;
32780;SDS011;19136;47.032;15.502;2022-09-17T00:17:41;4.20;;;3.22;;
32780;SDS011;19136;47.032;15.502;2022-09-17T00:20:07;7.43;;;4.13;;
32780;SDS011;19136;47.032;15.502;2022-09-17T00:22:34;7.85;;;4.15;;
32780;SDS011;19136;47.032;15.502;2022-09-17T00:25:01;9.13;;;4.40;;
32780;SDS011;19136;47.032;15.502;2022-09-17T00:27:27;7.10;;;3.75;;
32780;SDS011;19136;47.032;15.502;2022-09-17T00:29:53;6.75;;;4.10;;
32780;SDS011;19136;47.032;15.502;2022-09-17T00:32:18;5.30;;;3.38;;
32780;SDS011;19136;47.032;15.502;2022-09-17T00:34:44;4.95;;;3.17;;
32780;SDS011;19136;47.032;15.502;2022-09-17T00:37:10;6.68;;;3.30;;
32780;SDS011;19136;47.032;15.502;2022-09-17T00:39:36;5.63;;;3.53;;
32780;SDS011;19136;47.032;15.502;2022-09-17T00:42:02;6.13;;;3.47;;
32780;SDS011;19136;47.032;15.502;2022-09-17T00:44:41;4.43;;;3.22;;
32780;SDS011;19136;47.032;15.502;2022-09-17T00:52:32;4.28;;;3.13;;
32780;SDS011;19136;47.032;15.502;2022-09-17T00:55:23;5.32;;;2.95;;
32780;SDS011;19136;47.032;15.502;2022-09-17T00:57:51;4.07;;;3.00;;
32780;SDS011;19136;47.032;15.502;2022-09-17T01:00:18;5.32;;;3.30;;
32780;SDS011;19136;47.032;15.502;2022-09-17T01:02:44;6.80;;;3.15;;
32780;SDS011;19136;47.032;15.502;2022-09-17T01:05:10;3.92;;;3.20;;
32780;SDS011;19136;47.032;15.502;2022-09-17T01:18:27;4.35;;;3.00;;
32780;SDS011;19136;47.032;15.502;2022-09-17T01:24:08;6.47;;;2.92;;
32780;SDS011;19136;47.032;15.502;2022-09-17T01:37:35;3.92;;;2.70;;
32780;SDS011;19136;47.032;15.502;2022-09-17T01:42:47;4.97;;;3.08;;
32780;SDS011;19136;47.032;15.502;2022-09-17T01:45:29;10.07;;;3.00;;
32780;SDS011;19136;47.032;15.502;2022-09-17T01:48:06;5.60;;;3.65;;
32780;SDS011;19136;47.032;15.502;2022-09-17T01:50:40;6.10;;;3.15;;
32780;SDS011;19136;47.032;15.502;2022-09-17T01:53:31;11.68;;;3.65;;
32780;SDS011;19136;47.032;15.502;2022-09-17T01:56:22;9.10;;;5.53;;
32780;SDS011;19136;47.032;15.502;2022-09-17T01:58:51;9.15;;;4.07;;
32780;SDS011;19136;47.032;15.502;2022-09-17T02:01:20;4.63;;;3.78;;
32780;SDS011;19136;47.032;15.502;2022-09-17T02:04:23;4.43;;;3.78;;
32780;SDS011;19136;47.032;15.502;2022-09-17T02:07:02;10.35;;;4.00;;
32780;SDS011;19136;47.032;15.502;2022-09-17T02:09:35;6.65;;;3.70;;
32780;SDS011;19136;47.032;15.502;2022-09-17T02:12:07;5.47;;;4.07;;
32780;SDS011;19136;47.032;15.502;2022-09-17T02:14:36;8.70;;;4.18;;
32780;SDS011;19136;47.032;15.502;2022-09-17T02:17:15;28.65;;;19.92;;
32780;SDS011;19136;47.032;15.502;2022-09-17T02:19:53;28.40;;;22.05;;
32780;SDS011;19136;47.032;15.502;2022-09-17T02:22:21;21.10;;;12.35;;
32780;SDS011;19136;47.032;15.502;2022-09-17T02:25:35;14.02;;;7.60;;
32780;SDS011;19136;47.032;15.502;2022-09-17T02:27:43;11.63;;;5.88;;
32780;SDS011;19136;47.032;15.502;2022-09-17T02:30:16;5.55;;;4.13;;
32780;SDS011;19136;47.032;15.502;2022-09-17T02:32:41;5.10;;;4.10;;
32780;SDS011;19136;47.032;15.502;2022-09-17T02:35:08;10.40;;;6.18;;
32780;SDS011;19136;47.032;15.502;2022-09-17T02:37:34;6.70;;;4.57;;
32780;SDS011;19136;47.032;15.502;2022-09-17T02:40:00;5.68;;;5.05;;
32780;SDS011;19136;47.032;15.502;2022-09-17T02:53:30;8.63;;;4.40;;
32780;SDS011;19136;47.032;15.502;2022-09-17T03:01:05;8.82;;;5.28;;
32780;SDS011;19136;47.032;15.502;2022-09-17T03:03:38;5.75;;;4.28;;
32780;SDS011;19136;47.032;15.502;2022-09-17T03:06:04;6.55;;;4.85;;
32780;SDS011;19136;47.032;15.502;2022-09-17T03:08:34;6.95;;;4.82;;
32780;SDS011;19136;47.032;15.502;2022-09-17T03:11:02;6.47;;;4.78;;
32780;SDS011;19136;47.032;15.502;2022-09-17T03:13:29;6.13;;;4.35;;
32780;SDS011;19136;47.032;15.502;2022-09-17T03:15:55;7.72;;;4.53;;
32780;SDS011;19136;47.032;15.502;2022-09-17T03:18:21;7.00;;;4.70;;
32780;SDS011;19136;47.032;15.502;2022-09-17T03:20:46;6.68;;;4.68;;
32780;SDS011;19136;47.032;15.502;2022-09-17T03:23:12;8.75;;;5.32;;
32780;SDS011;19136;47.032;15.502;2022-09-17T03:25:37;7.55;;;4.80;;
32780;SDS011;19136;47.032;15.502;2022-09-17T03:28:03;5.40;;;4.22;;
32780;SDS011;19136;47.032;15.502;2022-09-17T03:30:28;5.70;;;4.68;;
32780;SDS011;19136;47.032;15.502;2022-09-17T03:32:54;8.63;;;4.82;;
32780;SDS011;19136;47.032;15.502;2022-09-17T03:35:19;9.90;;;5.13;;
32780;SDS011;19136;47.032;15.502;2022-09-17T03:37:45;8.88;;;6.63;;
32780;SDS011;19136;47.032;15.502;2022-09-17T03:40:11;9.02;;;6.38;;
32780;SDS011;19136;47.032;15.502;2022-09-17T03:42:37;10.63;;;6.28;;
32780;SDS011;19136;47.032;15.502;2022-09-17T03:45:03;8.98;;;5.70;;
32780;SDS011;19136;47.032;15.502;2022-09-17T03:47:28;9.95;;;6.20;;
32780;SDS011;19136;47.032;15.502;2022-09-17T03:49:56;11.43;;;7.50;;
32780;SDS011;19136;47.032;15.502;2022-09-17T03:52:21;10.43;;;7.18;;
32780;SDS011;19136;47.032;15.502;2022-09-17T03:54:47;11.25;;;6.00;;
32780;SDS011;19136;47.032;15.502;2022-09-17T03:57:13;6.57;;;4.68;;
32780;SDS011;19136;47.032;15.502;2022-09-17T03:59:38;15.23;;;8.18;;
32780;SDS011;19136;47.032;15.502;2022-09-17T04:02:04;19.60;;;8.68;;
32780;SDS011;19136;47.032;15.502;2022-09-17T04:04:30;10.52;;;7.13;;
32780;SDS011;19136;47.032;15.502;2022-09-17T04:06:55;9.45;;;6.13;;
32780;SDS011;19136;47.032;15.502;2022-09-17T04:09:21;8.32;;;6.55;;
32780;SDS011;19136;47.032;15.502;2022-09-17T04:11:46;9.80;;;6.88;;
32780;SDS011;19136;47.032;15.502;2022-09-17T04:14:12;10.60;;;6.65;;
32780;SDS011;19136;47.032;15.502;2022-09-17T04:16:37;9.57;;;6.50;;
32780;SDS011;19136;47.032;15.502;2022-09-17T04:19:03;11.13;;;6.65;;
32780;SDS011;19136;47.032;15.502;2022-09-17T04:21:28;9.35;;;7.13;;
32780;SDS011;19136;47.032;15.502;2022-09-17T04:23:53;11.07;;;6.68;;
32780;SDS011;19136;47.032;15.502;2022-09-17T04:26:19;11.45;;;6.47;;
32780;SDS011;19136;47.032;15.502;2022-09-17T04:28:45;10.63;;;7.00;;
32780;SDS011;19136;47.032;15.502;2022-09-17T04:31:10;11.80;;;7.47;;
32780;SDS011;19136;47.032;15.502;2022-09-17T04:33:36;11.73;;;6.88;;
32780;SDS011;19136;47.032;15.502;2022-09-17T04:36:02;18.63;;;8.68;;
32780;SDS011;19136;47.032;15.502;2022-09-17T04:38:27;11.80;;;7.28;;
32780;SDS011;19136;47.032;15.502;2022-09-17T04:40:53;8.45;;;6.20;;
32780;SDS011;19136;47.032;15.502;2022-09-17T04:43:21;14.43;;;6.95;;
32780;SDS011;19136;47.032;15.502;2022-09-17T04:45:47;8.82;;;6.28;;
32780;SDS011;19136;47.032;15.502;2022-09-17T04:48:13;12.90;;;7.10;;
32780;SDS011;19136;47.032;15.502;2022-09-17T04:50:38;11.35;;;7.03;;
32780;SDS011;19136;47.032;15.502;2022-09-17T04:53:04;15.57;;;8.82;;
32780;SDS011;19136;47.032;15.502;2022-09-17T04:55:29;13.13;;;7.55;;
32780;SDS011;19136;47.032;15.502;2022-09-17T04:57:55;13.38;;;8.20;;
32780;SDS011;19136;47.032;15.502;2022-09-17T05:00:21;11.93;;;7.63;;
32780;SDS011;19136;47.032;15.502;2022-09-17T05:02:48;21.20;;;8.63;;
32780;SDS011;19136;47.032;15.502;2022-09-17T05:05:15;9.60;;;6.82;;
32780;SDS011;19136;47.032;15.502;2022-09-17T05:07:41;11.63;;;7.05;;
32780;SDS011;19136;47.032;15.502;2022-09-17T05:10:07;13.00;;;9.27;;
32780;SDS011;19136;47.032;15.502;2022-09-17T05:12:33;15.70;;;10.43;;
32780;SDS011;19136;47.032;15.502;2022-09-17T05:14:59;15.68;;;9.32;;
32780;SDS011;19136;47.032;15.502;2022-09-17T05:17:24;17.20;;;9.88;;
32780;SDS011;19136;47.032;15.502;2022-09-17T05:19:50;13.38;;;8.82;;
32780;SDS011;19136;47.032;15.502;2022-09-17T05:22:17;12.75;;;8.55;;
32780;SDS011;19136;47.032;15.502;2022-09-17T05:24:43;15.23;;;9.38;;
32780;SDS011;19136;47.032;15.502;2022-09-17T05:27:09;21.65;;;10.43;;
32780;SDS011;19136;47.032;15.502;2022-09-17T05:29:34;14.60;;;9.32;;
32780;SDS011;19136;47.032;15.502;2022-09-17T05:32:00;14.88;;;9.90;;
32780;SDS011;19136;47.032;15.502;2022-09-17T05:34:27;15.57;;;8.52;;
32780;SDS011;19136;47.032;15.502;2022-09-17T05:36:52;14.02;;;8.85;;
32780;SDS011;19136;47.032;15.502;2022-09-17T05:39:18;20.58;;;9.82;;
32780;SDS011;19136;47.032;15.502;2022-09-17T05:41:45;17.83;;;10.02;;
32780;SDS011;19136;47.032;15.502;2022-09-17T05:44:10;16.88;;;10.52;;
32780;SDS011;19136;47.032;15.502;2022-09-17T05:46:36;18.05;;;11.70;;
32780;SDS011;19136;47.032;15.502;2022-09-17T05:49:02;26.52;;;11.32;;
32780;SDS011;19136;47.032;15.502;2022-09-17T05:51:29;25.05;;;12.68;;
32780;SDS011;19136;47.032;15.502;2022-09-17T05:53:54;17.13;;;10.70;;
32780;SDS011;19136;47.032;15.502;2022-09-17T05:56:20;14.60;;;8.57;;
32780;SDS011;19136;47.032;15.502;2022-09-17T05:58:46;16.55;;;9.48;;
32780;SDS011;19136;47.032;15.502;2022-09-17T06:01:12;22.10;;;11.82;;
32780;SDS011;19136;47.032;15.502;2022-09-17T06:03:40;27.40;;;11.65;;
32780;SDS011;19136;47.032;15.502;2022-09-17T06:06:06;18.83;;;11.15;;
32780;SDS011;19136;47.032;15.502;2022-09-17T06:08:32;18.50;;;11.05;;
32780;SDS011;19136;47.032;15.502;2022-09-17T06:11:04;28.85;;;13.68;;
32780;SDS011;19136;47.032;15.502;2022-09-17T06:13:30;18.40;;;10.50;;
32780;SDS011;19136;47.032;15.502;2022-09-17T06:15:56;27.38;;;13.48;;
32780;SDS011;19136;47.032;15.502;2022-09-17T06:18:22;21.38;;;11.95;;
32780;SDS011;19136;47.032;15.502;2022-09-17T06:20:51;36.15;;;15.63;;
32780;SDS011;19136;47.032;15.502;2022-09-17T06:23:20;19.88;;;11.95;;
32780;SDS011;19136;47.032;15.502;2022-09-17T06:25:56;18.67;;;11.80;;
32780;SDS011;19136;47.032;15.502;2022-09-17T06:28:23;21.60;;;12.63;;
32780;SDS011;19136;47.032;15.502;2022-09-17T06:30:49;25.10;;;12.40;;
32780;SDS011;19136;47.032;15.502;2022-09-17T06:33:18;26.05;;;11.40;;
32780;SDS011;19136;47.032;15.502;2022-09-17T06:35:47;19.85;;;10.05;;
32780;SDS011;19136;47.032;15.502;2022-09-17T06:41:52;17.10;;;7.20;;
32780;SDS011;19136;47.032;15.502;2022-09-17T06:44:18;16.33;;;8.02;;
32780;SDS011;19136;47.032;15.502;2022-09-17T06:46:43;15.38;;;7.40;;
32780;SDS011;19136;47.032;15.502;2022-09-17T06:49:09;9.07;;;6.88;;
32780;SDS011;19136;47.032;15.502;2022-09-17T06:51:35;9.75;;;7.00;;
32780;SDS011;19136;47.032;15.502;2022-09-17T06:54:01;11.23;;;7.93;;
32780;SDS011;19136;47.032;15.502;2022-09-17T06:56:27;11.85;;;7.10;;
32780;SDS011;19136;47.032;15.502;2022-09-17T06:58:52;11.80;;;8.18;;
32780;SDS011;19136;47.032;15.502;2022-09-17T07:01:18;13.02;;;6.57;;
32780;SDS011;19136;47.032;15.502;2022-09-17T07:03:43;12.32;;;7.32;;
32780;SDS011;19136;47.032;15.502;2022-09-17T07:06:09;10.90;;;5.07;;
32780;SDS011;19136;47.032;15.502;2022-09-17T07:08:35;8.68;;;4.80;;
32780;SDS011;19136;47.032;15.502;2022-09-17T07:11:00;7.10;;;4.75;;
32780;SDS011;19136;47.032;15.502;2022-09-17T07:13:26;8.40;;;5.57;;
32780;SDS011;19136;47.032;15.502;2022-09-17T07:15:53;9.57;;;6.75;;
32780;SDS011;19136;47.032;15.502;2022-09-17T07:18:22;7.53;;;5.43;;
32780;SDS011;19136;47.032;15.502;2022-09-17T07:20:55;8.65;;;5.30;;
32780;SDS011;19136;47.032;15.502;2022-09-17T07:23:23;8.55;;;6.15;;
32780;SDS011;19136;47.032;15.502;2022-09-17T07:25:56;8.85;;;5.63;;
32780;SDS011;19136;47.032;15.502;2022-09-17T07:28:23;7.80;;;6.22;;
32780;SDS011;19136;47.032;15.502;2022-09-17T07:30:49;9.63;;;5.95;;
32780;SDS011;19136;47.032;15.502;2022-09-17T07:33:16;6.43;;;4.88;;
32780;SDS011;19136;47.032;15.502;2022-09-17T07:35:50;5.82;;;4.65;;
32780;SDS011;19136;47.032;15.502;2022-09-17T07:38:17;6.50;;;4.80;;
32780;SDS011;19136;47.032;15.502;2022-09-17T07:40:43;8.73;;;5.18;;
32780;SDS011;19136;47.032;15.502;2022-09-17T07:43:08;6.70;;;5.20;;
32780;SDS011;19136;47.032;15.502;2022-09-17T07:45:34;8.98;;;5.28;;
32780;SDS011;19136;47.032;15.502;2022-09-17T07:47:59;6.10;;;4.70;;
32780;SDS011;19136;47.032;15.502;2022-09-17T07:50:25;6.05;;;4.40;;
32780;SDS011;19136;47.032;15.502;2022-09-17T07:52:50;5.22;;;4.18;;
32780;SDS011;19136;47.032;15.502;2022-09-17T07:55:16;9.40;;;4.30;;
32780;SDS011;19136;47.032;15.502;2022-09-17T07:57:41;6.32;;;4.43;;
32780;SDS011;19136;47.032;15.502;2022-09-17T08:00:07;9.93;;;4.20;;
32780;SDS011;19136;47.032;15.502;2022-09-17T08:02:33;6.88;;;4.57;;
32780;SDS011;19136;47.032;15.502;2022-09-17T08:04:59;7.80;;;4.38;;
32780;SDS011;19136;47.032;15.502;2022-09-17T08:07:24;9.05;;;4.70;;
32780;SDS011;19136;47.032;15.502;2022-09-17T08:09:50;5.68;;;4.25;;
32780;SDS011;19136;47.032;15.502;2022-09-17T08:12:15;11.35;;;6.13;;
32780;SDS011;19136;47.032;15.502;2022-09-17T08:14:42;11.88;;;6.05;;
32780;SDS011;19136;47.032;15.502;2022-09-17T08:17:08;9.30;;;6.32;;
32780;SDS011;19136;47.032;15.502;2022-09-17T08:19:33;8.25;;;4.55;;
32780;SDS011;19136;47.032;15.502;2022-09-17T08:21:59;9.50;;;4.65;;
32780;SDS011;19136;47.032;15.502;2022-09-17T08:24:25;7.63;;;4.90;;
32780;SDS011;19136;47.032;15.502;2022-09-17T08:26:54;6.82;;;4.60;;
32780;SDS011;19136;47.032;15.502;2022-09-17T08:29:19;6.38;;;4.32;;
32780;SDS011;19136;47.032;15.502;2022-09-17T08:31:45;7.07;;;4.40;;
32780;SDS011;19136;47.032;15.502;2022-09-17T08:34:11;7.93;;;4.22;;
32780;SDS011;19136;47.032;15.502;2022-09-17T08:36:37;8.75;;;5.25;;
32780;SDS011;19136;47.032;15.502;2022-09-17T08:39:03;6.10;;;4.30;;
32780;SDS011;19136;47.032;15.502;2022-09-17T08:44:28;6.20;;;4.05;;
32780;SDS011;19136;47.032;15.502;2022-09-17T08:47:00;6.50;;;3.40;;
32780;SDS011;19136;47.032;15.502;2022-09-17T08:57:41;6.03;;;2.72;;
32780;SDS011;19136;47.032;15.502;2022-09-17T09:00:16;4.65;;;3.53;;
32780;SDS011;19136;47.032;15.502;2022-09-17T09:05:20;6.75;;;3.15;;
32780;SDS011;19136;47.032;15.502;2022-09-17T09:07:51;4.85;;;3.08;;
32780;SDS011;19136;47.032;15.502;2022-09-17T09:10:22;6.22;;;3.60;;
32780;SDS011;19136;47.032;15.502;2022-09-17T09:12:51;4.47;;;3.30;;
32780;SDS011;19136;47.032;15.502;2022-09-17T09:17:57;10.68;;;3.97;;
32780;SDS011;19136;47.032;15.502;2022-09-17T09:20:49;7.45;;;3.17;;
32780;SDS011;19136;47.032;15.502;2022-09-17T09:23:20;5.83;;;3.30;;
32780;SDS011;19136;47.032;15.502;2022-09-17T09:25:59;4.82;;;3.28;;
32780;SDS011;19136;47.032;15.502;2022-09-17T09:28:41;4.75;;;3.13;;
32780;SDS011;19136;47.032;15.502;2022-09-17T09:31:26;4.53;;;3.70;;
32780;SDS011;19136;47.032;15.502;2022-09-17T09:34:11;7.88;;;3.42;;
32780;SDS011;19136;47.032;15.502;2022-09-17T09:36:37;4.22;;;3.10;;
32780;SDS011;19136;47.032;15.502;2022-09-17T09:39:24;4.97;;;3.10;;
32780;SDS011;19136;47.032;15.502;2022-09-17T09:41:51;5.30;;;2.95;;
32780;SDS011;19136;47.032;15.502;2022-09-17T09:44:18;4.47;;;2.60;;
32780;SDS011;19136;47.032;15.502;2022-09-17T09:49:21;7.90;;;3.60;;
32780;SDS011;19136;47.032;15.502;2022-09-17T10:00:28;4.45;;;2.67;;
32780;SDS011;19136;47.032;15.502;2022-09-17T10:08:18;7.55;;;5.03;;
32780;SDS011;19136;47.032;15.502;2022-09-17T10:11:03;4.88;;;3.30;;
32780;SDS011;19136;47.032;15.502;2022-09-17T10:13:34;4.93;;;3.17;;
32780;SDS011;19136;47.032;15.502;2022-09-17T10:18:38;9.23;;;3.53;;
32780;SDS011;19136;47.032;15.502;2022-09-17T10:21:04;6.78;;;2.85;;
32780;SDS011;19136;47.032;15.502;2022-09-17T10:23:31;5.05;;;2.80;;
32780;SDS011;19136;47.032;15.502;2022-09-17T10:25:59;6.75;;;2.72;;
32780;SDS011;19136;47.032;15.502;2022-09-17T10:30:59;4.68;;;2.63;;
32780;SDS011;19136;47.032;15.502;2022-09-17T10:33:28;5.85;;;2.38;;
32780;SDS011;19136;47.032;15.502;2022-09-17T10:35:58;4.07;;;2.40;;
32780;SDS011;19136;47.032;15.502;2022-09-17T10:38:44;3.65;;;2.33;;
32780;SDS011;19136;47.032;15.502;2022-09-17T10:41:14;8.25;;;2.90;;
32780;SDS011;19136;47.032;15.502;2022-09-17T10:43:40;3.50;;;2.47;;
32780;SDS011;19136;47.032;15.502;2022-09-17T10:46:25;7.40;;;2.85;;
32780;SDS011;19136;47.032;15.502;2022-09-17T10:49:16;7.13;;;3.97;;
32780;SDS011;19136;47.032;15.502;2022-09-17T10:51:49;6.22;;;3.35;;
32780;SDS011;19136;47.032;15.502;2022-09-17T10:54:26;4.30;;;2.63;;
32780;SDS011;19136;47.032;15.502;2022-09-17T10:57:01;7.72;;;3.55;;
32780;SDS011;19136;47.032;15.502;2022-09-17T10:59:34;3.25;;;2.20;;
32780;SDS011;19136;47.032;15.502;2022-09-17T11:05:21;3.22;;;1.73;;
32780;SDS011;19136;47.032;15.502;2022-09-17T11:13:30;9.02;;;3.05;;
32780;SDS011;19136;47.032;15.502;2022-09-17T11:19:08;10.35;;;5.40;;
32780;SDS011;19136;47.032;15.502;2022-09-17T11:21:41;4.43;;;2.03;;
32780;SDS011;19136;47.032;15.502;2022-09-17T11:32:21;3.83;;;1.77;;
32780;SDS011;19136;47.032;15.502;2022-09-17T11:40:33;4.28;;;1.55;;
32780;SDS011;19136;47.032;15.502;2022-09-17T11:43:20;1.83;;;1.20;;
32780;SDS011;19136;47.032;15.502;2022-09-17T11:46:07;3.47;;;1.20;;
32780;SDS011;19136;47.032;15.502;2022-09-17T11:48:59;1.58;;;1.08;;
32780;SDS011;19136;47.032;15.502;2022-09-17T11:51:31;2.20;;;1.27;;
32780;SDS011;19136;47.032;15.502;2022-09-17T11:56:53;2.08;;;1.17;;
32780;SDS011;19136;47.032;15.502;2022-09-17T12:03:00;2.47;;;0.93;;
32780;SDS011;19136;47.032;15.502;2022-09-17T12:05:04;1.25;;;0.95;;
32780;SDS011;19136;47.032;15.502;2022-09-17T12:07:55;2.53;;;0.95;;
32780;SDS011;19136;47.032;15.502;2022-09-17T12:13:43;1.77;;;0.80;;
32780;SDS011;19136;47.032;15.502;2022-09-17T12:16:48;1.52;;;0.90;;
32780;SDS011;19136;47.032;15.502;2022-09-17T12:19:32;1.42;;;0.68;;
32780;SDS011;19136;47.032;15.502;2022-09-17T12:22:00;3.25;;;0.80;;
32780;SDS011;19136;47.032;15.502;2022-09-17T12:24:32;2.47;;;1.02;;
32780;SDS011;19136;47.032;15.502;2022-09-17T12:43:50;4.00;;;0.80;;
32780;SDS011;19136;47.032;15.502;2022-09-17T12:52:15;4.05;;;1.10;;
32780;SDS011;19136;47.032;15.502;2022-09-17T12:58:06;2.28;;;0.70;;
32780;SDS011;19136;47.032;15.502;2022-09-17T13:00:45;2.10;;;0.88;;
32780;SDS011;19136;47.032;15.502;2022-09-17T13:03:30;1.35;;;0.52;;
32780;SDS011;19136;47.032;15.502;2022-09-17T13:06:03;3.83;;;0.70;;
32780;SDS011;19136;47.032;15.502;2022-09-17T13:09:01;4.10;;;1.05;;
32780;SDS011;19136;47.032;15.502;2022-09-17T13:16:55;5.40;;;0.90;;
32780;SDS011;19136;47.032;15.502;2022-09-17T13:22:03;2.40;;;0.80;;
32780;SDS011;19136;47.032;15.502;2022-09-17T13:24:31;2.63;;;0.80;;
32780;SDS011;19136;47.032;15.502;2022-09-17T13:26:58;4.32;;;1.20;;
32780;SDS011;19136;47.032;15.502;2022-09-17T13:37:33;5.45;;;1.00;;
32780;SDS011;19136;47.032;15.502;2022-09-17T13:40:01;5.03;;;0.88;;
32780;SDS011;19136;47.032;15.502;2022-09-17T13:42:27;2.38;;;1.00;;
32780;SDS011;19136;47.032;15.502;2022-09-17T13:47:49;2.92;;;0.95;;
32780;SDS011;19136;47.032;15.502;2022-09-17T13:55:37;5.55;;;0.85;;
32780;SDS011;19136;47.032;15.502;2022-09-17T14:08:30;5.47;;;3.78;;
32780;SDS011;19136;47.032;15.502;2022-09-17T14:13:57;6.70;;;1.20;;
32780;SDS011;19136;47.032;15.502;2022-09-17T14:21:39;6.03;;;1.27;;
32780;SDS011;19136;47.032;15.502;2022-09-17T14:30:03;6.93;;;2.50;;
32780;SDS011;19136;47.032;15.502;2022-09-17T14:32:42;6.47;;;3.58;;
32780;SDS011;19136;47.032;15.502;2022-09-17T14:38:14;8.90;;;5.95;;
32780;SDS011;19136;47.032;15.502;2022-09-17T14:43:15;7.32;;;2.55;;
32780;SDS011;19136;47.032;15.502;2022-09-17T14:46:05;6.45;;;2.55;;
32780;SDS011;19136;47.032;15.502;2022-09-17T14:48:44;5.13;;;1.58;;
32780;SDS011;19136;47.032;15.502;2022-09-17T14:53:46;5.00;;;1.67;;
32780;SDS011;19136;47.032;15.502;2022-09-17T14:56:30;5.97;;;1.60;;
32780;SDS011;19136;47.032;15.502;2022-09-17T14:58:57;5.75;;;1.80;;
32780;SDS011;19136;47.032;15.502;2022-09-17T15:01:23;6.35;;;1.58;;
32780;SDS011;19136;47.032;15.502;2022-09-17T15:04:08;3.67;;;1.90;;
32780;SDS011;19136;47.032;15.502;2022-09-17T15:06:37;4.80;;;1.77;;
32780;SDS011;19136;47.032;15.502;2022-09-17T15:09:39;3.97;;;1.83;;
32780;SDS011;19136;47.032;15.502;2022-09-17T15:11:58;4.63;;;1.58;;
32780;SDS011;19136;47.032;15.502;2022-09-17T15:14:32;4.22;;;1.42;;
32780;SDS011;19136;47.032;15.502;2022-09-17T15:17:01;4.40;;;1.88;;
32780;SDS011;19136;47.032;15.502;2022-09-17T15:22:15;5.35;;;1.98;;
32780;SDS011;19136;47.032;15.502;2022-09-17T15:25:08;7.38;;;2.38;;
32780;SDS011;19136;47.032;15.502;2022-09-17T15:27:39;6.28;;;2.10;;
32780;SDS011;19136;47.032;15.502;2022-09-17T15:30:13;5.20;;;2.33;;
32780;SDS011;19136;47.032;15.502;2022-09-17T15:33:14;5.30;;;1.70;;
32780;SDS011;19136;47.032;15.502;2022-09-17T15:35:33;7.47;;;1.48;;
32780;SDS011;19136;47.032;15.502;2022-09-17T15:38:17;12.02;;;1.80;;
32780;SDS011;19136;47.032;15.502;2022-09-17T15:40:49;11.93;;;2.10;;
32780;SDS011;19136;47.032;15.502;2022-09-17T15:45:51;10.93;;;3.53;;
32780;SDS011;19136;47.032;15.502;2022-09-17T15:50:52;6.20;;;2.47;;
32780;SDS011;19136;47.032;15.502;2022-09-17T15:53:23;5.90;;;2.65;;
32780;SDS011;19136;47.032;15.502;2022-09-17T15:56:24;9.80;;;2.78;;
32780;SDS011;19136;47.032;15.502;2022-09-17T16:11:16;10.85;;;3.63;;
32780;SDS011;19136;47.032;15.502;2022-09-17T16:13:46;9.52;;;3.63;;
32780;SDS011;19136;47.032;15.502;2022-09-17T16:16:17;8.68;;;4.70;;
32780;SDS011;19136;47.032;15.502;2022-09-17T16:18:44;11.40;;;4.72;;
32780;SDS011;19136;47.032;15.502;2022-09-17T16:21:10;7.50;;;4.28;;
32780;SDS011;19136;47.032;15.502;2022-09-17T16:23:36;8.13;;;4.20;;
32780;SDS011;19136;47.032;15.502;2022-09-17T16:26:02;6.50;;;3.70;;
32780;SDS011;19136;47.032;15.502;2022-09-17T16:28:28;10.75;;;3.90;;
32780;SDS011;19136;47.032;15.502;2022-09-17T16:30:54;10.32;;;5.25;;
32780;SDS011;19136;47.032;15.502;2022-09-17T16:33:20;9.80;;;4.47;;
32780;SDS011;19136;47.032;15.502;2022-09-17T16:35:45;9.27;;;3.65;;
32780;SDS011;19136;47.032;15.502;2022-09-17T16:38:11;9.10;;;4.07;;
32780;SDS011;19136;47.032;15.502;2022-09-17T16:40:44;7.30;;;3.83;;
32780;SDS011;19136;47.032;15.502;2022-09-17T16:43:11;6.28;;;3.20;;
32780;SDS011;19136;47.032;15.502;2022-09-17T16:45:37;14.35;;;2.35;;
32780;SDS011;19136;47.032;15.502;2022-09-17T16:48:03;2.47;;;1.70;;
32780;SDS011;19136;47.032;15.502;2022-09-17T16:50:32;2.58;;;1.27;;
32780;SDS011;19136;47.032;15.502;2022-09-17T16:52:59;5.10;;;1.30;;
32780;SDS011;19136;47.032;15.502;2022-09-17T16:55:27;6.63;;;2.45;;
32780;SDS011;19136;47.032;15.502;2022-09-17T16:57:55;5.82;;;2.78;;
32780;SDS011;19136;47.032;15.502;2022-09-17T17:00:22;4.45;;;2.47;;
32780;SDS011;19136;47.032;15.502;2022-09-17T17:02:52;5.28;;;3.08;;
32780;SDS011;19136;47.032;15.502;2022-09-17T17:05:19;3.95;;;2.05;;
32780;SDS011;19136;47.032;15.502;2022-09-17T17:07:45;4.55;;;1.42;;
32780;SDS011;19136;47.032;15.502;2022-09-17T17:10:10;2.38;;;1.25;;
32780;SDS011;19136;47.032;15.502;2022-09-17T17:12:36;1.67;;;0.70;;
32780;SDS011;19136;47.032;15.502;2022-09-17T17:15:02;4.22;;;1.92;;
32780;SDS011;19136;47.032;15.502;2022-09-17T17:17:30;5.20;;;1.40;;
32780;SDS011;19136;47.032;15.502;2022-09-17T17:19:57;1.30;;;0.55;;
32780;SDS011;19136;47.032;15.502;2022-09-17T17:22:23;1.98;;;0.70;;
32780;SDS011;19136;47.032;15.502;2022-09-17T17:24:48;0.93;;;0.50;;
32780;SDS011;19136;47.032;15.502;2022-09-17T17:27:14;3.75;;;0.57;;
32780;SDS011;19136;47.032;15.502;2022-09-17T17:29:40;1.52;;;0.65;;
32780;SDS011;19136;47.032;15.502;2022-09-17T17:32:06;2.08;;;0.55;;
32780;SDS011;19136;47.032;15.502;2022-09-17T17:34:31;1.20;;;0.50;;
32780;SDS011;19136;47.032;15.502;2022-09-17T17:36:57;1.33;;;0.60;;
32780;SDS011;19136;47.032;15.502;2022-09-17T17:39:23;0.77;;;0.50;;
32780;SDS011;19136;47.032;15.502;2022-09-17T17:41:48;5.20;;;0.80;;
32780;SDS011;19136;47.032;15.502;2022-09-17T17:44:14;0.80;;;0.50;;
32780;SDS011;19136;47.032;15.502;2022-09-17T17:46:39;0.60;;;0.30;;
32780;SDS011;19136;47.032;15.502;2022-09-17T17:49:06;1.08;;;0.50;;
32780;SDS011;19136;47.032;15.502;2022-09-17T17:51:32;0.20;;;0.20;;
32780;SDS011;19136;47.032;15.502;2022-09-17T17:53:57;2.85;;;0.70;;
32780;SDS011;19136;47.032;15.502;2022-09-17T17:56:23;2.50;;;0.82;;
32780;SDS011;19136;47.032;15.502;2022-09-17T17:58:58;1.70;;;0.60;;
32780;SDS011;19136;47.032;15.502;2022-09-17T18:01:25;1.42;;;0.60;;
32780;SDS011;19136;47.032;15.502;2022-09-17T18:03:59;0.40;;;0.30;;
32780;SDS011;19136;47.032;15.502;2022-09-17T18:06:26;1.58;;;0.40;;
32780;SDS011;19136;47.032;15.502;2022-09-17T18:08:52;0.98;;;0.45;;
32780;SDS011;19136;47.032;15.502;2022-09-17T18:11:18;2.28;;;0.60;;
32780;SDS011;19136;47.032;15.502;2022-09-17T18:13:44;0.65;;;0.40;;
32780;SDS011;19136;47.032;15.502;2022-09-17T18:16:11;2.20;;;0.65;;
32780;SDS011;19136;47.032;15.502;2022-09-17T18:18:41;0.90;;;0.40;;
32780;SDS011;19136;47.032;15.502;2022-09-17T18:21:09;0.68;;;0.35;;
32780;SDS011;19136;47.032;15.502;2022-09-17T18:23:37;1.75;;;0.52;;
32780;SDS011;19136;47.032;15.502;2022-09-17T18:26:05;2.03;;;0.55;;
32780;SDS011;19136;47.032;15.502;2022-09-17T18:28:33;0.80;;;0.40;;
32780;SDS011;19136;47.032;15.502;2022-09-17T18:31:04;2.08;;;0.68;;
32780;SDS011;19136;47.032;15.502;2022-09-17T18:33:30;1.20;;;0.45;;